Time;durP1;ratioP1;P1;durP2;ratioP2;P2;SDS_P1;SDS_P2;PMS_P1;PMS_P2;Temp;Humidity;BMP_temperature;BMP_pressure;BME280_temperature;BME280_humidity;BME280_pressure;Samples;Min_cycle;Max_cycle;Signal;HPM_P1;HPM_P2
2023/04/10 00:00:56;;;;;;;17.25;9.40;;;;;;;8.62;100.00;102032.16;5269254;28;20122;-74
2023/04/10 00:03:26;;;;;;;16.85;9.68;;;;;;;8.63;100.00;102022.31;5267397;28;20535;-74
2023/04/10 00:05:57;;;;;;;17.70;9.85;;;;;;;8.65;100.00;102013.19;5276740;28;20020;-74
2023/04/10 00:08:27;;;;;;;16.88;8.75;;;;;;;8.69;100.00;102017.31;5268129;28;20384;-74
2023/04/10 00:10:58;;;;;;;20.60;9.82;;;;;;;8.76;100.00;102015.84;5270050;28;20039;-74
2023/04/10 00:13:29;;;;;;;15.27;9.25;;;;;;;8.79;100.00;102015.59;5265951;28;20023;-74
2023/04/10 00:15:59;;;;;;;18.33;9.32;;;;;;;8.80;100.00;102017.28;5267014;28;20051;-74
2023/04/10 00:18:30;;;;;;;16.63;8.63;;;;;;;8.86;100.00;102012.41;5275691;28;20445;-74
2023/04/10 00:21:02;;;;;;;14.20;7.97;;;;;;;8.88;100.00;102007.78;5273237;28;20463;-74
2023/04/10 00:23:33;;;;;;;15.13;8.23;;;;;;;8.84;100.00;102017.06;5270867;28;20135;-73
2023/04/10 00:26:04;;;;;;;15.25;8.48;;;;;;;8.79;100.00;102007.56;5264147;28;20027;-74
2023/04/10 00:28:37;;;;;;;14.13;8.10;;;;;;;8.75;100.00;102015.97;5265980;28;20027;-74
2023/04/10 00:31:07;;;;;;;14.52;7.60;;;;;;;8.72;100.00;102010.88;5284325;28;20019;-74
2023/04/10 00:33:37;;;;;;;16.08;8.15;;;;;;;8.72;100.00;102003.69;5281940;28;20048;-74
2023/04/10 00:36:08;;;;;;;15.55;8.10;;;;;;;8.71;100.00;102009.16;5274023;28;20012;-74
2023/04/10 00:38:38;;;;;;;14.60;8.90;;;;;;;8.68;100.00;102004.91;5280456;28;20030;-74
2023/04/10 00:41:09;;;;;;;12.90;7.68;;;;;;;8.66;100.00;102008.69;5284092;28;20027;-74
2023/04/10 00:43:40;;;;;;;16.52;7.78;;;;;;;8.68;100.00;102002.22;5276855;28;20411;-74
2023/04/10 00:46:10;;;;;;;13.18;7.68;;;;;;;8.66;100.00;101996.16;5277462;28;20034;-74
2023/04/10 00:48:41;;;;;;;16.50;8.45;;;;;;;8.74;100.00;101992.88;5271681;28;20691;-74
2023/04/10 00:51:12;;;;;;;13.10;7.45;;;;;;;8.71;100.00;101990.44;5277020;28;20103;-74
2023/04/10 00:53:42;;;;;;;15.38;7.45;;;;;;;8.68;100.00;101994.19;5273105;28;20092;-74
2023/04/10 00:56:14;;;;;;;13.20;7.10;;;;;;;8.65;100.00;101988.28;5275070;28;20020;-74
2023/04/10 00:58:44;;;;;;;12.60;7.57;;;;;;;8.59;100.00;101992.31;5276894;28;20396;-74
2023/04/10 01:01:15;;;;;;;13.43;7.13;;;;;;;8.61;100.00;101981.47;5278641;28;20028;-74
2023/04/10 01:03:46;;;;;;;14.48;6.45;;;;;;;8.72;100.00;101979.59;5279559;28;20031;-74
2023/04/10 01:06:35;;;;;;;11.63;6.43;;;;;;;8.74;100.00;101977.66;5279443;27;20106;-74
2023/04/10 01:09:32;;;;;;;10.50;6.00;;;;;;;8.85;100.00;101975.94;5265582;28;20032;-74
2023/04/10 01:12:43;;;;;;;11.02;6.00;;;;;;;8.82;100.00;101969.00;5236450;22;20041;-72
2023/04/10 01:15:17;;;;;;;11.55;6.15;;;;;;;8.87;100.00;101965.94;5191579;28;20052;-72
2023/04/10 01:17:55;;;;;;;10.20;6.10;;;;;;;8.88;100.00;101965.78;5190929;28;20025;-72
2023/04/10 01:20:30;;;;;;;12.48;5.95;;;;;;;8.93;100.00;101963.59;5201593;28;20025;-73
2023/04/10 01:23:40;;;;;;;14.18;6.20;;;;;;;9.01;100.00;101962.97;5192732;28;20029;-72
2023/04/10 01:26:16;;;;;;;11.25;5.93;;;;;;;9.14;100.00;101962.78;5194192;28;20033;-72
2023/04/10 01:29:00;;;;;;;10.25;5.88;;;;;;;9.05;100.00;101965.25;5186761;28;20077;-72
2023/04/10 01:31:46;;;;;;;9.60;6.05;;;;;;;9.00;100.00;101955.91;5186292;28;20022;-72
2023/04/10 01:34:35;;;;;;;10.85;6.07;;;;;;;8.99;100.00;101955.06;5186575;28;20026;-72
2023/04/10 01:37:14;;;;;;;9.45;5.70;;;;;;;9.01;100.00;101953.09;5186228;28;20033;-73
2023/04/10 01:39:50;;;;;;;13.05;6.00;;;;;;;8.96;100.00;101943.75;5199751;28;20488;-73
2023/04/10 01:42:22;;;;;;;11.05;6.30;;;;;;;8.89;100.00;101943.44;5189323;28;20514;-73
2023/04/10 01:44:54;;;;;;;9.77;5.68;;;;;;;8.88;100.00;101933.69;5186617;28;20030;-73
2023/04/10 01:47:26;;;;;;;11.57;6.28;;;;;;;8.98;100.00;101931.94;5187997;28;20026;-73
2023/04/10 01:49:58;;;;;;;12.75;6.20;;;;;;;8.97;100.00;101924.03;5193404;28;20018;-72
2023/04/10 01:52:30;;;;;;;11.80;6.40;;;;;;;8.90;100.00;101928.22;5193053;28;20033;-73
2023/04/10 01:55:01;;;;;;;12.38;6.45;;;;;;;8.87;100.00;101920.44;5186306;28;20084;-73
2023/04/10 01:57:34;;;;;;;10.98;5.97;;;;;;;8.85;100.00;101917.06;5171386;28;20100;-72
2023/04/10 02:00:21;;;;;;;9.75;5.70;;;;;;;8.76;100.00;101907.97;5186072;28;20025;-73
2023/04/10 02:02:52;;;;;;;11.90;6.35;;;;;;;8.72;100.00;101912.72;5186001;28;20452;-75
2023/04/10 02:05:33;;;;;;;11.38;7.13;;;;;;;8.71;100.00;101907.50;5186135;28;20105;-73
2023/04/10 02:12:02;;;;;;;10.75;6.03;;;;;;;8.71;100.00;101896.81;5214164;23;20056;-74
2023/04/10 02:14:37;;;;;;;11.05;6.28;;;;;;;8.64;100.00;101890.28;5224115;28;20033;-74
2023/04/10 02:17:10;;;;;;;11.88;6.13;;;;;;;8.59;100.00;101888.00;5204630;28;20027;-74
2023/04/10 02:19:47;;;;;;;12.60;6.78;;;;;;;8.59;100.00;101888.00;5217371;28;20071;-74
2023/04/10 02:22:18;;;;;;;12.38;6.18;;;;;;;8.58;100.00;101888.94;5222205;28;20543;-74
2023/04/10 02:24:49;;;;;;;10.15;5.38;;;;;;;8.57;100.00;101890.78;5208585;28;20021;-74
2023/04/10 02:27:37;;;;;;;11.70;6.40;;;;;;;8.53;100.00;101883.13;5212984;28;20037;-73
2023/04/10 02:30:08;;;;;;;13.27;6.38;;;;;;;8.46;100.00;101890.81;5195463;28;20024;-74
2023/04/10 02:32:38;;;;;;;11.38;6.50;;;;;;;8.46;100.00;101893.50;5209276;28;20394;-74
2023/04/10 02:35:09;;;;;;;11.80;6.45;;;;;;;8.42;100.00;101891.19;5195954;28;20032;-73
2023/04/10 02:37:41;;;;;;;11.05;6.07;;;;;;;8.39;100.00;101892.31;5211199;28;20492;-74
2023/04/10 02:40:11;;;;;;;10.65;5.70;;;;;;;8.34;100.00;101886.47;5214649;28;20017;-74
2023/04/10 02:42:42;;;;;;;11.13;6.18;;;;;;;8.28;100.00;101890.50;5219592;28;20029;-74
2023/04/10 02:45:12;;;;;;;10.77;6.22;;;;;;;8.20;100.00;101887.59;5222491;28;20028;-74
2023/04/10 02:47:43;;;;;;;10.80;6.15;;;;;;;8.16;100.00;101891.47;5210118;28;20025;-73
2023/04/10 02:50:13;;;;;;;11.45;6.38;;;;;;;8.15;100.00;101894.28;5222690;28;20025;-74
2023/04/10 02:52:44;;;;;;;9.50;6.00;;;;;;;8.16;100.00;101890.63;5225260;28;20086;-74
2023/04/10 02:55:14;;;;;;;11.35;5.90;;;;;;;8.14;100.00;101887.25;5223945;28;20499;-74
2023/04/10 02:57:45;;;;;;;10.15;6.05;;;;;;;8.13;100.00;101885.53;5224053;28;20056;-73
2023/04/10 03:00:18;;;;;;;11.93;5.55;;;;;;;8.09;100.00;101890.28;5224178;28;20017;-74
2023/04/10 03:02:48;;;;;;;10.95;5.97;;;;;;;8.04;100.00;101895.16;5223727;28;20025;-74
2023/04/10 03:05:19;;;;;;;9.57;5.72;;;;;;;7.99;100.00;101892.00;5224958;28;20159;-73
2023/04/10 03:07:49;;;;;;;10.80;5.75;;;;;;;7.93;100.00;101888.03;5223310;28;20034;-74
2023/04/10 03:10:20;;;;;;;9.63;5.57;;;;;;;7.87;100.00;101879.63;5206640;28;20029;-74
2023/04/10 03:12:50;;;;;;;9.35;5.63;;;;;;;7.78;100.00;101881.22;5223627;28;20108;-75
2023/04/10 03:15:20;;;;;;;11.73;5.55;;;;;;;7.73;100.00;101880.72;5224879;28;20102;-74
2023/04/10 03:17:51;;;;;;;14.10;6.28;;;;;;;7.68;100.00;101872.22;5224633;28;20112;-74
2023/04/10 03:20:22;;;;;;;11.40;6.68;;;;;;;7.63;100.00;101879.75;5206974;28;20040;-73
2023/04/10 03:22:52;;;;;;;13.02;6.28;;;;;;;7.58;100.00;101879.28;5224162;28;20017;-74
2023/04/10 03:25:23;;;;;;;12.35;6.00;;;;;;;7.51;100.00;101874.44;5206270;28;20047;-74
2023/04/10 03:27:54;;;;;;;8.52;5.20;;;;;;;7.44;100.00;101873.22;5223742;28;20029;-73
2023/04/10 03:30:25;;;;;;;8.38;5.10;;;;;;;7.37;100.00;101874.66;5223575;28;20104;-73
2023/04/10 03:32:55;;;;;;;11.32;6.57;;;;;;;7.31;100.00;101871.63;5207213;28;20108;-73
2023/04/10 03:35:25;;;;;;;11.93;6.22;;;;;;;7.24;100.00;101858.78;5223137;28;20028;-73
2023/04/10 03:37:56;;;;;;;8.55;5.47;;;;;;;7.22;100.00;101857.19;5224232;28;20108;-73
2023/04/10 03:40:26;;;;;;;11.98;6.50;;;;;;;7.20;100.00;101854.63;5223379;28;20048;-74
2023/04/10 03:42:57;;;;;;;9.77;5.30;;;;;;;7.17;100.00;101846.84;5224404;28;20371;-73
2023/04/10 03:45:28;;;;;;;12.13;6.25;;;;;;;7.13;100.00;101844.53;5224050;28;20045;-74
2023/04/10 03:47:59;;;;;;;11.80;5.90;;;;;;;7.11;100.00;101850.00;5211913;28;20029;-73
2023/04/10 03:50:29;;;;;;;10.40;6.32;;;;;;;7.10;100.00;101852.81;5219702;28;20029;-74
2023/04/10 03:53:00;;;;;;;11.27;5.68;;;;;;;7.08;100.00;101850.28;5220613;28;20378;-74
2023/04/10 03:55:31;;;;;;;11.15;5.85;;;;;;;7.05;100.00;101852.31;5217627;28;20020;-74
2023/04/10 03:58:01;;;;;;;11.20;6.43;;;;;;;6.99;100.00;101841.16;5218547;28;20033;-74
2023/04/10 04:00:32;;;;;;;11.73;6.40;;;;;;;6.97;100.00;101837.72;5218091;28;20021;-74
2023/04/10 04:03:03;;;;;;;12.50;7.10;;;;;;;6.98;100.00;101847.47;5217575;28;20453;-73
2023/04/10 04:05:34;;;;;;;11.32;6.18;;;;;;;6.97;100.00;101840.41;5201765;28;20074;-74
2023/04/10 04:08:05;;;;;;;14.65;6.28;;;;;;;6.95;100.00;101829.00;5219807;28;20115;-73
2023/04/10 04:10:36;;;;;;;11.65;6.40;;;;;;;6.90;100.00;101823.19;5202087;28;20025;-73
2023/04/10 04:13:06;;;;;;;13.20;6.68;;;;;;;6.87;100.00;101818.06;5215702;28;20029;-74
2023/04/10 04:15:37;;;;;;;12.63;6.07;;;;;;;6.84;100.00;101822.81;5220242;28;20028;-74
2023/04/10 04:18:08;;;;;;;12.82;6.15;;;;;;;6.81;100.00;101821.22;5222809;28;20028;-74
2023/04/10 04:20:38;;;;;;;11.57;6.50;;;;;;;6.78;100.00;101816.16;5213848;28;20037;-73
2023/04/10 04:23:09;;;;;;;11.23;5.97;;;;;;;6.77;100.00;101810.91;5221858;28;20017;-73
2023/04/10 04:25:39;;;;;;;11.45;6.95;;;;;;;6.75;100.00;101803.88;5214115;28;20172;-73
2023/04/10 04:28:12;;;;;;;14.48;6.82;;;;;;;6.73;100.00;101807.66;5206264;28;20025;-73
2023/04/10 04:30:42;;;;;;;12.75;6.95;;;;;;;6.74;100.00;101807.53;5216894;28;20029;-73
2023/04/10 04:33:13;;;;;;;14.20;6.88;;;;;;;6.77;100.00;101811.75;5206979;28;20028;-74
2023/04/10 04:35:43;;;;;;;13.27;7.28;;;;;;;6.80;100.00;101816.00;5205629;28;20029;-73
2023/04/10 04:38:15;;;;;;;11.63;6.88;;;;;;;6.81;100.00;101815.88;5205139;28;20029;-74
2023/04/10 04:40:46;;;;;;;11.55;6.82;;;;;;;6.81;100.00;101812.38;5206863;28;20029;-73
2023/04/10 04:43:16;;;;;;;12.23;6.82;;;;;;;6.81;100.00;101815.88;5212968;28;20049;-73
2023/04/10 04:45:47;;;;;;;13.43;7.97;;;;;;;6.82;100.00;101806.91;5209995;28;20397;-73
2023/04/10 04:48:17;;;;;;;13.82;7.15;;;;;;;6.83;100.00;101792.63;5185807;28;20084;-74
2023/04/10 04:50:48;;;;;;;11.15;6.55;;;;;;;6.83;100.00;101797.09;5212798;28;20542;-73
2023/04/10 04:53:18;;;;;;;17.00;6.88;;;;;;;6.84;100.00;101798.81;5219952;28;20025;-73
2023/04/10 04:55:49;;;;;;;15.05;6.93;;;;;;;6.83;100.00;101800.63;5217104;28;20044;-74
2023/04/10 04:58:20;;;;;;;13.55;6.50;;;;;;;6.84;100.00;101799.66;5220456;28;20060;-74
2023/04/10 05:00:51;;;;;;;14.80;7.57;;;;;;;6.86;100.00;101803.03;5216513;28;20033;-73
2023/04/10 05:03:21;;;;;;;14.52;6.97;;;;;;;6.89;100.00;101801.97;5202608;28;20017;-73
2023/04/10 05:05:52;;;;;;;11.95;6.88;;;;;;;6.89;100.00;101792.16;5216239;28;20090;-73
2023/04/10 05:08:23;;;;;;;13.32;6.88;;;;;;;6.91;100.00;101789.34;5218791;28;20036;-73
2023/04/10 05:10:53;;;;;;;12.23;6.80;;;;;;;6.93;100.00;101790.09;5200674;28;20032;-73
2023/04/10 05:13:24;;;;;;;16.55;7.80;;;;;;;6.95;100.00;101774.81;5219880;28;20111;-73
2023/04/10 05:15:54;;;;;;;15.32;7.32;;;;;;;6.97;100.00;101780.88;5202578;28;20025;-73
2023/04/10 05:18:25;;;;;;;13.25;7.28;;;;;;;6.98;100.00;101775.44;5222313;28;20023;-73
2023/04/10 05:20:55;;;;;;;14.95;7.32;;;;;;;7.04;100.00;101762.56;5205499;28;20100;-73
2023/04/10 05:23:26;;;;;;;13.10;6.57;;;;;;;7.09;100.00;101769.25;5208989;28;20048;-74
2023/04/10 05:25:56;;;;;;;11.70;7.00;;;;;;;7.15;100.00;101774.09;5202491;28;20053;-73
2023/04/10 05:28:27;;;;;;;10.88;6.80;;;;;;;7.18;100.00;101781.03;5202727;28;20125;-73
2023/04/10 05:30:57;;;;;;;12.75;6.82;;;;;;;7.20;100.00;101784.41;5185243;28;20065;-74
2023/04/10 05:33:28;;;;;;;14.18;7.32;;;;;;;7.22;100.00;101787.78;5185271;28;20029;-73
2023/04/10 05:35:58;;;;;;;14.30;6.95;;;;;;;7.25;100.00;101793.75;5202804;28;20049;-73
2023/04/10 05:38:29;;;;;;;12.95;7.35;;;;;;;7.27;100.00;101799.78;5202137;28;20029;-73
2023/04/10 05:40:59;;;;;;;12.40;6.45;;;;;;;7.32;100.00;101796.75;5202755;28;20025;-73
2023/04/10 05:43:29;;;;;;;12.00;6.85;;;;;;;7.38;100.00;101798.09;5207200;28;20026;-74
2023/04/10 05:46:00;;;;;;;12.30;6.88;;;;;;;7.41;100.00;101796.03;5202727;28;20063;-73
2023/04/10 05:48:30;;;;;;;14.18;7.35;;;;;;;7.45;100.00;101793.97;5203353;28;20053;-73
2023/04/10 05:51:01;;;;;;;12.75;6.85;;;;;;;7.50;100.00;101799.78;5215725;28;20044;-74
2023/04/10 05:53:31;;;;;;;14.35;7.40;;;;;;;7.60;100.00;101792.75;5207023;28;20029;-74
2023/04/10 05:56:02;;;;;;;11.90;7.05;;;;;;;7.70;100.00;101798.19;5210753;28;20045;-74
2023/04/10 05:58:32;;;;;;;12.90;6.63;;;;;;;7.78;100.00;101801.06;5190540;28;20033;-74
2023/04/10 06:01:03;;;;;;;11.93;6.38;;;;;;;7.86;100.00;101795.13;5213543;28;20459;-74
2023/04/10 06:03:34;;;;;;;14.27;7.22;;;;;;;7.93;100.00;101799.84;5194926;28;20740;-74
2023/04/10 06:06:06;;;;;;;10.27;6.05;;;;;;;7.97;100.00;101790.56;5212833;28;20026;-74
2023/04/10 06:08:36;;;;;;;13.32;6.65;;;;;;;8.01;100.00;101791.19;5213549;28;20033;-74
2023/04/10 06:11:07;;;;;;;11.30;6.78;;;;;;;8.05;100.00;101788.13;5193247;28;20017;-73
2023/04/10 06:13:37;;;;;;;12.77;6.65;;;;;;;8.11;100.00;101792.13;5222962;28;20036;-75
2023/04/10 06:16:08;;;;;;;11.52;6.60;;;;;;;8.18;100.00;101787.97;5192483;28;20083;-75
2023/04/10 06:18:39;;;;;;;14.05;6.93;;;;;;;8.26;100.00;101784.66;5199042;28;20052;-75
2023/04/10 06:21:09;;;;;;;12.80;6.05;;;;;;;8.35;100.00;101777.69;5221189;28;20021;-74
2023/04/10 06:23:40;;;;;;;12.20;7.18;;;;;;;8.42;100.00;101769.03;5221812;28;20362;-75
2023/04/10 06:26:11;;;;;;;13.93;6.90;;;;;;;8.47;100.00;101769.50;5198762;28;20033;-74
2023/04/10 06:28:42;;;;;;;11.40;6.80;;;;;;;8.53;100.00;101760.09;5221705;28;20165;-75
2023/04/10 06:31:12;;;;;;;11.25;6.30;;;;;;;8.57;100.00;101765.06;5217507;28;20026;-75
2023/04/10 06:33:43;;;;;;;12.05;6.75;;;;;;;8.57;100.00;101753.50;5221149;28;20024;-75
2023/04/10 06:36:13;;;;;;;13.88;6.97;;;;;;;8.62;100.00;101756.66;5217757;28;20531;-75
2023/04/10 06:38:44;;;;;;;12.65;7.13;;;;;;;8.67;100.00;101750.91;5200525;28;20100;-75
2023/04/10 06:41:14;;;;;;;11.43;6.70;;;;;;;8.72;100.00;101752.19;5200334;28;20082;-74
2023/04/10 06:43:45;;;;;;;11.32;6.13;;;;;;;8.74;100.00;101747.59;5218687;28;20105;-75
2023/04/10 06:46:16;;;;;;;10.77;6.18;;;;;;;8.77;100.00;101746.44;5218990;28;20032;-75
2023/04/10 06:48:46;;;;;;;11.55;6.22;;;;;;;8.80;100.00;101735.50;5212264;28;20048;-75
2023/04/10 06:51:16;;;;;;;13.07;6.38;;;;;;;8.88;100.00;101727.63;5195415;28;20040;-75
2023/04/10 06:53:47;;;;;;;14.40;6.75;;;;;;;8.95;100.00;101730.63;5221221;28;20025;-75
2023/04/10 06:56:18;;;;;;;10.30;6.05;;;;;;;9.02;100.00;101723.75;5222113;28;20036;-75
2023/04/10 06:58:48;;;;;;;12.55;6.15;;;;;;;9.08;100.00;101728.56;5206274;28;20123;-75
2023/04/10 07:01:19;;;;;;;12.43;6.70;;;;;;;9.15;100.00;101721.69;5221567;28;20460;-75
2023/04/10 07:03:49;;;;;;;10.93;6.22;;;;;;;9.18;100.00;101715.22;5220182;28;20110;-75
2023/04/10 07:06:20;;;;;;;11.77;6.57;;;;;;;9.26;100.00;101720.75;5219272;28;20037;-75
2023/04/10 07:08:50;;;;;;;10.02;6.18;;;;;;;9.31;100.00;101714.00;5220348;28;20029;-75
2023/04/10 07:11:21;;;;;;;10.23;6.13;;;;;;;9.40;100.00;101706.97;5198980;28;20710;-75
2023/04/10 07:13:52;;;;;;;11.25;6.43;;;;;;;9.47;100.00;101696.53;5222111;28;20033;-75
2023/04/10 07:16:22;;;;;;;11.57;6.10;;;;;;;9.54;100.00;101697.72;5217915;28;20112;-75
2023/04/10 07:18:53;;;;;;;11.52;6.53;;;;;;;9.63;100.00;101691.50;5221882;28;20500;-76
2023/04/10 07:21:23;;;;;;;10.50;6.05;;;;;;;9.74;100.00;101686.03;5225009;28;20025;-75
2023/04/10 07:23:54;;;;;;;10.63;6.00;;;;;;;9.84;100.00;101669.94;5214439;28;20401;-75
2023/04/10 07:26:24;;;;;;;10.70;6.18;;;;;;;9.91;100.00;101665.69;5220248;28;20028;-73
2023/04/10 07:28:55;;;;;;;11.63;6.40;;;;;;;10.00;100.00;101662.16;5195029;28;20033;-73
2023/04/10 07:31:25;;;;;;;9.38;5.97;;;;;;;10.08;100.00;101658.75;5215698;28;20052;-73
2023/04/10 07:33:56;;;;;;;10.23;6.30;;;;;;;10.15;100.00;101645.66;5211783;28;20049;-73
2023/04/10 07:36:26;;;;;;;14.60;6.25;;;;;;;10.19;100.00;101652.38;5198349;28;20025;-73
2023/04/10 07:38:57;;;;;;;11.98;6.22;;;;;;;10.18;100.00;101651.53;5210450;28;20037;-73
2023/04/10 07:41:27;;;;;;;10.98;6.22;;;;;;;10.27;100.00;101655.22;5223031;28;20043;-73
2023/04/10 07:43:58;;;;;;;9.32;5.78;;;;;;;10.31;100.00;101651.28;5219306;28;20024;-73
2023/04/10 07:46:28;;;;;;;10.80;6.03;;;;;;;10.33;100.00;101647.44;5214971;28;20489;-73
2023/04/10 07:48:59;;;;;;;10.90;6.30;;;;;;;10.36;100.00;101641.81;5195819;28;20036;-73
2023/04/10 07:51:29;;;;;;;9.15;5.68;;;;;;;10.38;100.00;101636.28;5213532;28;20481;-73
2023/04/10 07:54:00;;;;;;;10.32;6.10;;;;;;;10.41;100.00;101627.97;5214902;28;20026;-73
2023/04/10 07:56:30;;;;;;;12.30;5.88;;;;;;;10.51;100.00;101634.13;5191959;28;20029;-73
2023/04/10 07:59:01;;;;;;;9.43;5.47;;;;;;;10.65;100.00;101646.22;5192900;28;20525;-73
2023/04/10 08:01:32;;;;;;;9.07;5.85;;;;;;;10.66;100.00;101642.56;5208822;28;20052;-73
2023/04/10 08:04:03;;;;;;;10.30;6.00;;;;;;;10.69;100.00;101639.56;5193910;28;20151;-73
2023/04/10 08:06:34;;;;;;;10.60;6.10;;;;;;;10.70;100.00;101645.78;5207524;28;20029;-73
2023/04/10 08:09:04;;;;;;;17.10;6.22;;;;;;;10.76;100.00;101639.84;5193494;28;20025;-73
2023/04/10 08:11:36;;;;;;;11.70;6.18;;;;;;;10.80;100.00;101643.91;5207008;28;20481;-73
2023/04/10 08:14:06;;;;;;;10.63;5.40;;;;;;;10.91;100.00;101642.88;5210663;28;20017;-73
2023/04/10 08:16:38;;;;;;;9.52;6.13;;;;;;;10.95;100.00;101639.75;5206682;28;20493;-73
2023/04/10 08:19:08;;;;;;;11.15;5.68;;;;;;;11.03;100.00;101642.50;5221422;28;20024;-73
2023/04/10 08:21:38;;;;;;;9.10;5.78;;;;;;;11.26;100.00;101636.72;5220764;28;20103;-73
2023/04/10 08:24:09;;;;;;;16.67;6.22;;;;;;;11.44;100.00;101634.03;5210355;28;20021;-73
2023/04/10 08:26:39;;;;;;;14.13;5.97;;;;;;;11.56;100.00;101628.31;5219076;28;20032;-74
2023/04/10 08:29:10;;;;;;;10.75;5.70;;;;;;;11.40;100.00;101628.16;5218035;28;20493;-74
2023/04/10 08:31:41;;;;;;;13.50;6.13;;;;;;;11.56;100.00;101633.69;5211780;28;20429;-73
2023/04/10 08:34:11;;;;;;;9.05;6.07;;;;;;;11.43;100.00;101627.00;5207962;28;20155;-73
2023/04/10 08:36:42;;;;;;;9.77;6.13;;;;;;;11.64;100.00;101631.03;5210769;28;20394;-73
2023/04/10 08:39:12;;;;;;;8.88;5.82;;;;;;;11.76;100.00;101618.22;5207418;28;20035;-74
2023/04/10 08:41:43;;;;;;;12.35;5.68;;;;;;;11.70;100.00;101626.06;5210843;28;20039;-73
2023/04/10 08:44:13;;;;;;;13.13;6.45;;;;;;;11.92;100.00;101620.25;5192797;28;20040;-74
2023/04/10 08:46:44;;;;;;;9.75;5.90;;;;;;;12.04;100.00;101624.34;5210626;28;20033;-74
2023/04/10 08:49:22;;;;;;;12.07;5.65;;;;;;;12.14;100.00;101617.03;5208116;28;20024;-73
2023/04/10 08:51:55;;;;;;;10.95;5.97;;;;;;;12.22;100.00;101616.25;5207207;28;20033;-73
2023/04/10 08:54:28;;;;;;;10.13;5.43;;;;;;;12.13;100.00;101607.28;5216262;28;20027;-74
2023/04/10 08:57:00;;;;;;;9.30;5.78;;;;;;;12.05;100.00;101611.75;5213533;28;20025;-74
2023/04/10 08:59:31;;;;;;;11.95;7.22;;;;;;;12.10;100.00;101612.16;5217405;28;20025;-73
2023/04/10 09:02:01;;;;;;;9.60;5.63;;;;;;;12.23;100.00;101601.78;5216534;28;20048;-73
2023/04/10 09:04:32;;;;;;;9.93;5.90;;;;;;;12.24;100.00;101591.88;5215812;28;20099;-74
2023/04/10 09:07:02;;;;;;;8.68;5.72;;;;;;;12.24;100.00;101581.13;5216530;28;20025;-74
2023/04/10 09:09:33;;;;;;;10.23;5.32;;;;;;;12.06;100.00;101598.16;5215019;28;20037;-74
2023/04/10 09:12:05;;;;;;;9.60;5.57;;;;;;;12.11;100.00;101585.09;5199947;28;20047;-74
2023/04/10 09:14:36;;;;;;;10.80;5.32;;;;;;;12.13;100.00;101585.75;5196334;28;20071;-74
2023/04/10 09:17:25;;;;;;;8.10;5.53;;;;;;;12.21;100.00;101576.91;5200100;28;20031;-73
2023/04/10 09:19:55;;;;;;;7.72;5.13;;;;;;;12.29;100.00;101579.63;5220153;28;20024;-74
2023/04/10 09:22:37;;;;;;;10.82;4.93;;;;;;;12.44;100.00;101569.09;5218543;28;20673;-74
2023/04/10 09:25:28;;;;;;;7.65;4.95;;;;;;;12.60;100.00;101573.72;5214450;28;20024;-74
2023/04/10 09:28:18;;;;;;;8.32;4.88;;;;;;;12.73;100.00;101570.59;5200855;28;20032;-74
2023/04/10 09:30:48;;;;;;;8.45;5.50;;;;;;;12.60;100.00;101558.44;5213594;28;20018;-74
2023/04/10 09:33:22;;;;;;;9.80;4.93;;;;;;;12.72;100.00;101552.75;5219054;28;20029;-74
2023/04/10 09:35:56;;;;;;;10.20;5.57;;;;;;;12.80;100.00;101550.06;5217075;28;20032;-74
2023/04/10 09:38:26;;;;;;;7.95;5.05;;;;;;;13.03;100.00;101545.75;5220242;28;20025;-74
2023/04/10 09:41:06;;;;;;;8.80;5.05;;;;;;;13.06;100.00;101550.84;5219037;28;20029;-74
2023/04/10 09:43:37;;;;;;;8.98;5.25;;;;;;;13.11;100.00;101553.03;5204132;28;20035;-74
2023/04/10 09:46:08;;;;;;;9.80;5.43;;;;;;;13.00;100.00;101554.16;5221403;28;20493;-74
2023/04/10 09:48:54;;;;;;;9.77;4.82;;;;;;;13.01;100.00;101552.34;5217110;28;20041;-74
2023/04/10 09:51:41;;;;;;;10.50;5.00;;;;;;;13.03;100.00;101544.91;5220639;28;20078;-75
2023/04/10 09:54:11;;;;;;;7.97;4.95;;;;;;;13.02;100.00;101538.69;5197705;28;20106;-74
2023/04/10 09:56:44;;;;;;;10.07;4.90;;;;;;;13.15;100.00;101538.19;5210766;28;20049;-74
2023/04/10 09:59:16;;;;;;;8.05;4.97;;;;;;;13.40;100.00;101537.28;5210656;28;20102;-74
2023/04/10 10:01:46;;;;;;;7.68;4.95;;;;;;;13.46;100.00;101530.34;5209902;28;20025;-74
2023/04/10 10:04:17;;;;;;;9.02;4.85;;;;;;;13.52;100.00;101526.97;5211817;28;20047;-74
2023/04/10 10:06:48;;;;;;;7.25;4.80;;;;;;;13.65;100.00;101529.16;5208666;28;20033;-74
2023/04/10 10:09:19;;;;;;;7.55;5.10;;;;;;;13.91;100.00;101520.88;5211009;28;20424;-74
2023/04/10 10:11:50;;;;;;;10.70;5.40;;;;;;;13.77;100.00;101521.56;5208571;28;20033;-75
2023/04/10 10:14:23;;;;;;;6.20;4.32;;;;;;;13.86;100.00;101510.59;5201301;28;20100;-74
2023/04/10 10:16:58;;;;;;;8.70;5.38;;;;;;;13.94;100.00;101501.63;5208315;28;20033;-75
2023/04/10 10:19:31;;;;;;;;;;;;;;;14.11;100.00;101497.06;5220787;28;20478;-75
2023/04/10 10:22:03;;;;;;;7.60;4.50;;;;;;;14.32;100.00;101482.97;5221626;28;19970;-74
2023/04/10 10:24:36;;;;;;;6.18;4.13;;;;;;;14.67;100.00;101492.44;5217662;28;20029;-74
2023/04/10 10:27:09;;;;;;;8.00;4.20;;;;;;;14.97;100.00;101493.44;5220317;28;20025;-74
2023/04/10 10:29:41;;;;;;;9.57;5.75;;;;;;;15.21;100.00;101490.56;5194536;28;20425;-75
2023/04/10 10:32:13;;;;;;;8.88;4.72;;;;;;;15.17;100.00;101481.13;5206569;28;20025;-75
2023/04/10 10:34:45;;;;;;;10.90;4.97;;;;;;;15.28;100.00;101479.88;5212166;28;20036;-74
2023/04/10 10:37:17;;;;;;;7.18;4.80;;;;;;;15.41;100.00;101473.81;5219508;28;20439;-75
2023/04/10 10:39:58;;;;;;;6.63;4.53;;;;;;;15.62;100.00;101459.63;5184923;28;20040;-75
2023/04/10 10:43:07;;;;;;;7.70;4.40;;;;;;;15.59;100.00;101463.53;5222049;28;20024;-75
2023/04/10 10:46:00;;;;;;;6.13;4.22;;;;;;;15.41;100.00;101457.59;5213631;28;20060;-74
2023/04/10 10:48:31;;;;;;;9.55;4.45;;;;;;;15.37;100.00;101456.31;5221422;28;20075;-74
2023/04/10 10:51:03;;;;;;;6.70;4.57;;;;;;;15.51;100.00;101448.22;5218882;28;20029;-75
2023/04/10 10:56:26;;;;;;;7.05;4.28;;;;;;;15.48;100.00;101426.97;5218284;28;20009;-75
2023/04/10 10:58:57;;;;;;;8.77;3.97;;;;;;;15.75;100.00;101424.66;5219418;28;20040;-74
2023/04/10 11:01:28;;;;;;;9.27;4.20;;;;;;;15.95;100.00;101417.66;5220934;28;20025;-74
2023/04/10 11:03:58;;;;;;;10.80;3.88;;;;;;;16.39;100.00;101413.22;5217520;28;20053;-74
2023/04/10 11:06:49;;;;;;;7.50;4.53;;;;;;;16.62;100.00;101411.19;5220816;28;20380;-74
2023/04/10 11:09:57;;;;;;;5.28;3.80;;;;;;;16.42;100.00;101407.44;5217770;28;20033;-74
2023/04/10 11:12:28;;;;;;;6.20;4.32;;;;;;;16.33;100.00;101403.16;5217508;28;20032;-74
2023/04/10 11:15:00;;;;;;;6.53;3.63;;;;;;;16.31;100.00;101396.06;5220944;28;20021;-74
2023/04/10 11:17:50;;;;;;;6.20;3.90;;;;;;;16.03;100.00;101395.94;5217795;28;20025;-75
2023/04/10 11:20:24;;;;;;;7.05;3.83;;;;;;;15.93;100.00;101389.13;5217715;28;20398;-75
2023/04/10 11:23:08;;;;;;;5.40;3.53;;;;;;;16.05;100.00;101390.31;5227739;28;20021;-75
2023/04/10 11:25:55;;;;;;;6.30;3.80;;;;;;;16.17;100.00;101386.13;5218473;28;20028;-75
2023/04/10 11:28:42;;;;;;;6.05;3.85;;;;;;;16.25;100.00;101382.44;5194626;28;20029;-75
2023/04/10 11:31:32;;;;;;;9.40;4.53;;;;;;;16.46;100.00;101371.63;5215555;28;20033;-74
2023/04/10 11:34:05;;;;;;;6.25;3.90;;;;;;;16.49;100.00;101362.28;5215962;28;20021;-75
2023/04/10 11:36:39;;;;;;;6.18;3.70;;;;;;;16.47;100.00;101377.91;5194511;28;20053;-75
2023/04/10 11:39:12;;;;;;;6.18;3.70;;;;;;;16.47;100.00;101369.78;5216645;28;20477;-75
2023/04/10 11:41:44;;;;;;;8.35;4.10;;;;;;;16.48;100.00;101361.47;5214430;28;20028;-75
2023/04/10 11:44:25;;;;;;;6.57;3.63;;;;;;;16.72;100.00;101357.56;5219834;28;20017;-75
2023/04/10 11:46:56;;;;;;;8.30;3.50;;;;;;;16.78;100.00;101358.66;5217175;28;20440;-75
2023/04/10 11:49:30;;;;;;;6.05;3.38;;;;;;;16.72;100.00;101346.72;5195450;28;20021;-75